sensor_id;sensor_type;location;lat;lon;timestamp;P1;P2;P0
67714;PMS7003;54505;44.022;20.458;2022-10-13T00:00:12;94.00;83.00;47.50
67714;PMS7003;54505;44.022;20.458;2022-10-13T00:02:59;104.00;85.00;44.50
67714;PMS7003;54505;44.022;20.458;2022-10-13T00:05:25;111.25;96.75;56.75
67714;PMS7003;54505;44.022;20.458;2022-10-13T00:07:51;89.00;76.75;43.75
67714;PMS7003;54505;44.022;20.458;2022-10-13T00:10:16;94.50;80.00;47.00
67714;PMS7003;54505;44.022;20.458;2022-10-13T00:12:42;88.75;70.50;45.00
67714;PMS7003;54505;44.022;20.458;2022-10-13T00:15:08;89.25;75.75;42.75
67714;PMS7003;54505;44.022;20.458;2022-10-13T00:17:33;96.00;80.50;44.75
67714;PMS7003;54505;44.022;20.458;2022-10-13T00:20:01;89.50;78.25;44.00
67714;PMS7003;54505;44.022;20.458;2022-10-13T00:22:27;96.25;78.50;44.50
67714;PMS7003;54505;44.022;20.458;2022-10-13T00:24:52;93.75;76.50;45.75
67714;PMS7003;54505;44.022;20.458;2022-10-13T00:27:18;85.75;69.50;39.50
67714;PMS7003;54505;44.022;20.458;2022-10-13T00:29:44;87.50;69.25;43.75
67714;PMS7003;54505;44.022;20.458;2022-10-13T00:32:10;97.50;79.75;42.25
67714;PMS7003;54505;44.022;20.458;2022-10-13T00:34:36;91.25;73.00;40.50
67714;PMS7003;54505;44.022;20.458;2022-10-13T00:37:02;93.75;74.00;43.00
67714;PMS7003;54505;44.022;20.458;2022-10-13T00:39:28;97.50;80.25;46.75
67714;PMS7003;54505;44.022;20.458;2022-10-13T00:41:53;89.00;77.75;44.75
67714;PMS7003;54505;44.022;20.458;2022-10-13T00:47:04;90.50;74.50;43.75
67714;PMS7003;54505;44.022;20.458;2022-10-13T00:49:29;91.00;76.50;46.25
67714;PMS7003;54505;44.022;20.458;2022-10-13T00:51:55;95.00;79.75;43.00
67714;PMS7003;54505;44.022;20.458;2022-10-13T00:54:21;89.75;73.50;42.25
67714;PMS7003;54505;44.022;20.458;2022-10-13T00:56:48;89.50;74.00;41.75
67714;PMS7003;54505;44.022;20.458;2022-10-13T00:59:19;98.75;79.50;44.25
67714;PMS7003;54505;44.022;20.458;2022-10-13T01:01:50;94.25;74.50;42.00
67714;PMS7003;54505;44.022;20.458;2022-10-13T01:04:16;84.25;68.50;39.00
67714;PMS7003;54505;44.022;20.458;2022-10-13T01:06:44;85.00;70.75;41.50
67714;PMS7003;54505;44.022;20.458;2022-10-13T01:09:10;87.50;68.50;43.00
67714;PMS7003;54505;44.022;20.458;2022-10-13T01:16:57;88.50;74.00;40.75
67714;PMS7003;54505;44.022;20.458;2022-10-13T01:25:15;90.25;74.00;41.50
67714;PMS7003;54505;44.022;20.458;2022-10-13T01:30:18;87.25;75.00;42.25
67714;PMS7003;54505;44.022;20.458;2022-10-13T01:38:00;89.75;70.50;44.00
67714;PMS7003;54505;44.022;20.458;2022-10-13T01:43:15;87.50;70.50;42.50
67714;PMS7003;54505;44.022;20.458;2022-10-13T01:45:49;86.00;69.00;40.50
67714;PMS7003;54505;44.022;20.458;2022-10-13T01:48:18;86.50;68.50;41.50
67714;PMS7003;54505;44.022;20.458;2022-10-13T01:50:44;85.25;71.25;40.50
67714;PMS7003;54505;44.022;20.458;2022-10-13T01:53:11;88.50;75.50;41.75
67714;PMS7003;54505;44.022;20.458;2022-10-13T01:55:51;90.75;74.50;42.50
67714;PMS7003;54505;44.022;20.458;2022-10-13T01:58:17;88.25;71.00;40.25
67714;PMS7003;54505;44.022;20.458;2022-10-13T02:00:45;88.50;75.75;44.00
67714;PMS7003;54505;44.022;20.458;2022-10-13T02:03:17;88.25;70.50;39.00
67714;PMS7003;54505;44.022;20.458;2022-10-13T02:05:47;83.25;66.00;41.00
67714;PMS7003;54505;44.022;20.458;2022-10-13T02:08:17;85.25;69.25;40.75
67714;PMS7003;54505;44.022;20.458;2022-10-13T02:13:25;86.00;63.50;42.50
67714;PMS7003;54505;44.022;20.458;2022-10-13T02:15:53;85.75;71.75;40.50
67714;PMS7003;54505;44.022;20.458;2022-10-13T02:18:21;90.00;74.00;42.00
67714;PMS7003;54505;44.022;20.458;2022-10-13T02:20:47;89.75;70.50;39.50
67714;PMS7003;54505;44.022;20.458;2022-10-13T02:23:15;85.75;67.25;39.25
67714;PMS7003;54505;44.022;20.458;2022-10-13T02:25:41;84.75;68.00;39.50
67714;PMS7003;54505;44.022;20.458;2022-10-13T02:28:06;85.50;64.75;38.75
67714;PMS7003;54505;44.022;20.458;2022-10-13T02:30:32;87.00;68.25;37.25
67714;PMS7003;54505;44.022;20.458;2022-10-13T02:32:59;87.25;69.00;38.75
67714;PMS7003;54505;44.022;20.458;2022-10-13T02:35:25;84.75;65.50;39.00
67714;PMS7003;54505;44.022;20.458;2022-10-13T02:37:50;80.25;61.00;39.00
67714;PMS7003;54505;44.022;20.458;2022-10-13T02:40:16;83.75;61.50;38.25
67714;PMS7003;54505;44.022;20.458;2022-10-13T02:42:41;79.50;61.75;39.00
67714;PMS7003;54505;44.022;20.458;2022-10-13T02:45:07;87.75;63.00;38.75
67714;PMS7003;54505;44.022;20.458;2022-10-13T02:47:33;84.00;64.75;38.00
67714;PMS7003;54505;44.022;20.458;2022-10-13T02:49:58;85.50;67.75;39.00
67714;PMS7003;54505;44.022;20.458;2022-10-13T02:52:24;88.50;66.50;39.00
67714;PMS7003;54505;44.022;20.458;2022-10-13T02:54:50;89.50;68.75;40.50
67714;PMS7003;54505;44.022;20.458;2022-10-13T02:57:16;86.75;64.50;39.75
67714;PMS7003;54505;44.022;20.458;2022-10-13T02:59:42;84.50;66.50;39.00
67714;PMS7003;54505;44.022;20.458;2022-10-13T03:02:08;83.75;63.00;38.75
67714;PMS7003;54505;44.022;20.458;2022-10-13T03:04:34;90.25;71.00;40.00
67714;PMS7003;54505;44.022;20.458;2022-10-13T03:06:59;87.25;64.50;38.50
67714;PMS7003;54505;44.022;20.458;2022-10-13T03:09:26;81.25;61.25;38.25
67714;PMS7003;54505;44.022;20.458;2022-10-13T03:11:51;82.50;64.00;38.00
67714;PMS7003;54505;44.022;20.458;2022-10-13T03:14:17;82.50;65.50;38.50
67714;PMS7003;54505;44.022;20.458;2022-10-13T03:16:42;84.25;65.00;39.00
67714;PMS7003;54505;44.022;20.458;2022-10-13T03:19:08;85.50;61.50;38.75
67714;PMS7003;54505;44.022;20.458;2022-10-13T03:21:34;81.50;62.00;39.00
67714;PMS7003;54505;44.022;20.458;2022-10-13T03:23:59;85.75;66.00;39.75
67714;PMS7003;54505;44.022;20.458;2022-10-13T03:26:25;84.00;61.50;39.00
67714;PMS7003;54505;44.022;20.458;2022-10-13T03:28:51;87.00;69.50;39.25
67714;PMS7003;54505;44.022;20.458;2022-10-13T03:31:17;88.50;72.00;38.00
67714;PMS7003;54505;44.022;20.458;2022-10-13T03:33:43;83.75;63.25;38.50
67714;PMS7003;54505;44.022;20.458;2022-10-13T03:36:09;82.50;62.25;40.25
67714;PMS7003;54505;44.022;20.458;2022-10-13T03:38:35;86.25;69.00;39.00
67714;PMS7003;54505;44.022;20.458;2022-10-13T03:41:14;87.75;72.50;39.75
67714;PMS7003;54505;44.022;20.458;2022-10-13T03:43:40;85.50;66.50;39.00
67714;PMS7003;54505;44.022;20.458;2022-10-13T03:46:06;84.50;62.50;38.25
67714;PMS7003;54505;44.022;20.458;2022-10-13T03:48:32;86.00;70.50;40.00
67714;PMS7003;54505;44.022;20.458;2022-10-13T03:50:58;80.00;59.50;38.00
67714;PMS7003;54505;44.022;20.458;2022-10-13T03:53:24;84.00;63.50;36.00
67714;PMS7003;54505;44.022;20.458;2022-10-13T03:55:51;113.25;97.50;54.75
67714;PMS7003;54505;44.022;20.458;2022-10-13T03:58:17;131.00;109.75;60.50
67714;PMS7003;54505;44.022;20.458;2022-10-13T04:00:42;102.25;81.25;46.25
67714;PMS7003;54505;44.022;20.458;2022-10-13T04:03:10;116.50;92.75;51.00
67714;PMS7003;54505;44.022;20.458;2022-10-13T04:05:35;91.75;76.75;47.75
67714;PMS7003;54505;44.022;20.458;2022-10-13T04:08:01;103.00;89.75;51.25
67714;PMS7003;54505;44.022;20.458;2022-10-13T04:10:27;93.00;72.75;44.25
67714;PMS7003;54505;44.022;20.458;2022-10-13T04:12:52;87.25;72.00;41.00
67714;PMS7003;54505;44.022;20.458;2022-10-13T04:15:18;83.50;60.50;39.75
67714;PMS7003;54505;44.022;20.458;2022-10-13T04:17:43;82.00;63.75;39.50
67714;PMS7003;54505;44.022;20.458;2022-10-13T04:20:09;86.00;64.25;39.00
67714;PMS7003;54505;44.022;20.458;2022-10-13T04:22:35;82.50;64.25;38.25
67714;PMS7003;54505;44.022;20.458;2022-10-13T04:25:01;86.00;66.75;40.75
67714;PMS7003;54505;44.022;20.458;2022-10-13T04:27:27;81.00;62.50;37.75
67714;PMS7003;54505;44.022;20.458;2022-10-13T04:29:52;85.25;69.25;42.50
67714;PMS7003;54505;44.022;20.458;2022-10-13T04:32:18;84.00;64.50;40.50
67714;PMS7003;54505;44.022;20.458;2022-10-13T04:34:43;86.00;67.50;41.00
67714;PMS7003;54505;44.022;20.458;2022-10-13T04:37:09;88.25;68.00;40.00
67714;PMS7003;54505;44.022;20.458;2022-10-13T04:39:35;82.75;62.75;38.25
67714;PMS7003;54505;44.022;20.458;2022-10-13T04:42:01;90.50;71.50;43.25
67714;PMS7003;54505;44.022;20.458;2022-10-13T04:44:26;86.50;67.25;38.75
67714;PMS7003;54505;44.022;20.458;2022-10-13T04:46:52;81.25;59.50;38.25
67714;PMS7003;54505;44.022;20.458;2022-10-13T04:49:17;90.75;75.25;46.00
67714;PMS7003;54505;44.022;20.458;2022-10-13T04:51:43;86.50;69.25;40.75
67714;PMS7003;54505;44.022;20.458;2022-10-13T04:54:09;88.00;68.00;40.00
67714;PMS7003;54505;44.022;20.458;2022-10-13T04:56:34;85.25;64.75;40.50
67714;PMS7003;54505;44.022;20.458;2022-10-13T04:59:01;88.00;72.00;44.25
67714;PMS7003;54505;44.022;20.458;2022-10-13T05:01:26;92.75;76.25;46.75
67714;PMS7003;54505;44.022;20.458;2022-10-13T05:03:53;89.00;72.25;42.50
67714;PMS7003;54505;44.022;20.458;2022-10-13T05:06:19;83.25;66.25;39.75
67714;PMS7003;54505;44.022;20.458;2022-10-13T05:08:46;86.00;67.50;42.25
67714;PMS7003;54505;44.022;20.458;2022-10-13T05:11:11;83.50;63.50;38.25
67714;PMS7003;54505;44.022;20.458;2022-10-13T05:13:37;93.50;71.00;41.75
67714;PMS7003;54505;44.022;20.458;2022-10-13T05:16:10;89.75;71.50;45.00
67714;PMS7003;54505;44.022;20.458;2022-10-13T05:18:36;84.50;68.25;41.00
67714;PMS7003;54505;44.022;20.458;2022-10-13T05:21:21;83.00;62.75;39.00
67714;PMS7003;54505;44.022;20.458;2022-10-13T05:23:47;85.50;66.75;39.00
67714;PMS7003;54505;44.022;20.458;2022-10-13T05:26:14;85.50;71.25;40.25
67714;PMS7003;54505;44.022;20.458;2022-10-13T05:28:40;87.50;66.75;41.75
67714;PMS7003;54505;44.022;20.458;2022-10-13T05:31:15;83.25;61.75;39.00
67714;PMS7003;54505;44.022;20.458;2022-10-13T05:33:42;93.25;83.75;54.00
67714;PMS7003;54505;44.022;20.458;2022-10-13T05:36:15;89.75;75.50;47.00
67714;PMS7003;54505;44.022;20.458;2022-10-13T05:38:41;85.00;66.75;40.50
67714;PMS7003;54505;44.022;20.458;2022-10-13T05:41:12;86.75;74.00;41.00
67714;PMS7003;54505;44.022;20.458;2022-10-13T05:43:39;87.50;73.50;44.75
67714;PMS7003;54505;44.022;20.458;2022-10-13T05:46:05;87.00;65.75;39.25
67714;PMS7003;54505;44.022;20.458;2022-10-13T05:48:32;91.00;78.25;44.50
67714;PMS7003;54505;44.022;20.458;2022-10-13T05:50:59;87.50;74.00;44.00
67714;PMS7003;54505;44.022;20.458;2022-10-13T05:53:28;89.50;72.25;42.50
67714;PMS7003;54505;44.022;20.458;2022-10-13T05:55:56;91.50;71.00;41.75
67714;PMS7003;54505;44.022;20.458;2022-10-13T05:58:33;87.00;69.00;39.50
67714;PMS7003;54505;44.022;20.458;2022-10-13T06:01:01;85.25;68.75;41.25
67714;PMS7003;54505;44.022;20.458;2022-10-13T06:03:29;89.75;70.75;46.00
67714;PMS7003;54505;44.022;20.458;2022-10-13T06:05:55;117.75;101.75;59.50
67714;PMS7003;54505;44.022;20.458;2022-10-13T06:08:24;89.50;72.75;46.25
67714;PMS7003;54505;44.022;20.458;2022-10-13T06:10:49;90.00;77.50;45.75
67714;PMS7003;54505;44.022;20.458;2022-10-13T06:13:15;90.25;70.50;41.50
67714;PMS7003;54505;44.022;20.458;2022-10-13T06:15:41;88.25;64.25;39.75
67714;PMS7003;54505;44.022;20.458;2022-10-13T06:18:09;81.00;67.50;39.25
67714;PMS7003;54505;44.022;20.458;2022-10-13T06:20:35;83.75;60.75;38.25
67714;PMS7003;54505;44.022;20.458;2022-10-13T06:23:01;94.25;77.25;43.00
67714;PMS7003;54505;44.022;20.458;2022-10-13T06:25:26;90.00;73.00;42.00
67714;PMS7003;54505;44.022;20.458;2022-10-13T06:27:55;100.00;81.00;47.00
67714;PMS7003;54505;44.022;20.458;2022-10-13T06:30:21;98.50;85.50;48.75
67714;PMS7003;54505;44.022;20.458;2022-10-13T06:32:46;89.00;74.00;39.25
67714;PMS7003;54505;44.022;20.458;2022-10-13T06:35:12;89.75;70.75;42.25
67714;PMS7003;54505;44.022;20.458;2022-10-13T06:37:37;88.00;73.75;43.75
67714;PMS7003;54505;44.022;20.458;2022-10-13T06:40:03;93.25;80.75;42.25
67714;PMS7003;54505;44.022;20.458;2022-10-13T06:42:29;95.75;81.25;48.75
67714;PMS7003;54505;44.022;20.458;2022-10-13T06:44:56;89.75;74.25;40.75
67714;PMS7003;54505;44.022;20.458;2022-10-13T06:47:22;88.75;76.75;45.75
67714;PMS7003;54505;44.022;20.458;2022-10-13T06:49:47;101.50;80.75;46.50
67714;PMS7003;54505;44.022;20.458;2022-10-13T06:52:13;83.50;64.50;41.00
67714;PMS7003;54505;44.022;20.458;2022-10-13T06:54:39;99.00;78.00;47.00
67714;PMS7003;54505;44.022;20.458;2022-10-13T06:57:05;111.00;91.00;51.25
67714;PMS7003;54505;44.022;20.458;2022-10-13T06:59:31;115.75;99.25;54.50
67714;PMS7003;54505;44.022;20.458;2022-10-13T07:01:56;94.75;77.75;45.25
67714;PMS7003;54505;44.022;20.458;2022-10-13T07:04:22;85.75;71.50;41.50
67714;PMS7003;54505;44.022;20.458;2022-10-13T07:06:48;89.75;74.25;44.75
67714;PMS7003;54505;44.022;20.458;2022-10-13T07:09:15;86.75;75.75;45.00
67714;PMS7003;54505;44.022;20.458;2022-10-13T07:11:42;89.50;77.00;43.25
67714;PMS7003;54505;44.022;20.458;2022-10-13T07:14:08;87.75;71.50;42.00
67714;PMS7003;54505;44.022;20.458;2022-10-13T07:16:34;95.00;78.75;43.25
67714;PMS7003;54505;44.022;20.458;2022-10-13T07:19:00;164.25;146.25;80.75
67714;PMS7003;54505;44.022;20.458;2022-10-13T07:21:26;513.00;419.75;193.25
67714;PMS7003;54505;44.022;20.458;2022-10-13T07:23:52;91.00;78.75;45.00
67714;PMS7003;54505;44.022;20.458;2022-10-13T07:26:17;93.00;78.00;46.00
67714;PMS7003;54505;44.022;20.458;2022-10-13T07:28:43;90.25;75.50;44.50
67714;PMS7003;54505;44.022;20.458;2022-10-13T07:31:09;93.75;78.75;44.75
67714;PMS7003;54505;44.022;20.458;2022-10-13T07:33:36;93.50;75.00;43.50
67714;PMS7003;54505;44.022;20.458;2022-10-13T07:36:02;92.75;76.50;46.50
67714;PMS7003;54505;44.022;20.458;2022-10-13T07:38:28;100.25;82.50;47.25
67714;PMS7003;54505;44.022;20.458;2022-10-13T07:40:54;93.75;75.75;45.50
67714;PMS7003;54505;44.022;20.458;2022-10-13T07:43:19;89.50;81.50;43.75
67714;PMS7003;54505;44.022;20.458;2022-10-13T07:45:45;92.50;75.75;43.75
67714;PMS7003;54505;44.022;20.458;2022-10-13T07:48:10;90.00;74.50;41.25
67714;PMS7003;54505;44.022;20.458;2022-10-13T07:50:36;87.50;73.75;41.25
67714;PMS7003;54505;44.022;20.458;2022-10-13T07:53:02;103.00;89.25;52.75
67714;PMS7003;54505;44.022;20.458;2022-10-13T07:55:28;82.50;68.75;42.75
67714;PMS7003;54505;44.022;20.458;2022-10-13T07:57:53;81.25;69.75;41.50
67714;PMS7003;54505;44.022;20.458;2022-10-13T08:00:19;82.25;66.75;40.00
67714;PMS7003;54505;44.022;20.458;2022-10-13T08:02:47;87.25;69.50;39.50
67714;PMS7003;54505;44.022;20.458;2022-10-13T08:05:13;81.00;65.75;37.50
67714;PMS7003;54505;44.022;20.458;2022-10-13T08:07:39;83.50;72.75;43.25
67714;PMS7003;54505;44.022;20.458;2022-10-13T08:10:05;84.50;75.50;45.00
67714;PMS7003;54505;44.022;20.458;2022-10-13T08:12:31;85.50;69.75;41.50
67714;PMS7003;54505;44.022;20.458;2022-10-13T08:14:56;93.75;76.25;42.00
67714;PMS7003;54505;44.022;20.458;2022-10-13T08:17:22;83.25;70.50;44.25
67714;PMS7003;54505;44.022;20.458;2022-10-13T08:19:49;82.75;73.00;41.25
67714;PMS7003;54505;44.022;20.458;2022-10-13T08:22:15;76.50;60.50;36.25
67714;PMS7003;54505;44.022;20.458;2022-10-13T08:24:41;78.00;64.75;37.25
67714;PMS7003;54505;44.022;20.458;2022-10-13T08:27:08;73.75;60.00;35.00
67714;PMS7003;54505;44.022;20.458;2022-10-13T08:29:35;72.50;56.50;34.75
67714;PMS7003;54505;44.022;20.458;2022-10-13T08:32:00;70.00;54.75;34.00
67714;PMS7003;54505;44.022;20.458;2022-10-13T08:34:26;69.50;53.25;33.75
67714;PMS7003;54505;44.022;20.458;2022-10-13T08:36:52;69.50;55.75;35.00
67714;PMS7003;54505;44.022;20.458;2022-10-13T08:39:18;76.25;56.25;35.25
67714;PMS7003;54505;44.022;20.458;2022-10-13T08:41:44;71.75;56.75;35.75
67714;PMS7003;54505;44.022;20.458;2022-10-13T08:49:31;73.75;56.25;35.00
67714;PMS7003;54505;44.022;20.458;2022-10-13T08:51:57;73.00;56.25;34.50
67714;PMS7003;54505;44.022;20.458;2022-10-13T08:54:24;74.50;55.25;35.00
67714;PMS7003;54505;44.022;20.458;2022-10-13T08:56:50;71.50;55.25;34.75
67714;PMS7003;54505;44.022;20.458;2022-10-13T08:59:16;76.00;61.00;34.50
67714;PMS7003;54505;44.022;20.458;2022-10-13T09:01:43;72.75;55.75;34.50
67714;PMS7003;54505;44.022;20.458;2022-10-13T09:04:33;73.00;56.50;35.00
67714;PMS7003;54505;44.022;20.458;2022-10-13T09:07:04;70.00;52.75;33.75
67714;PMS7003;54505;44.022;20.458;2022-10-13T09:09:31;68.00;52.75;31.25
67714;PMS7003;54505;44.022;20.458;2022-10-13T09:11:57;70.00;54.00;34.00
67714;PMS7003;54505;44.022;20.458;2022-10-13T09:14:27;68.25;52.75;33.25
67714;PMS7003;54505;44.022;20.458;2022-10-13T09:16:53;71.75;56.50;33.75
67714;PMS7003;54505;44.022;20.458;2022-10-13T09:21:45;67.50;53.00;34.00
67714;PMS7003;54505;44.022;20.458;2022-10-13T09:24:12;69.50;56.00;33.75
67714;PMS7003;54505;44.022;20.458;2022-10-13T09:26:38;67.75;52.50;34.00
67714;PMS7003;54505;44.022;20.458;2022-10-13T09:29:08;64.50;51.50;33.50
67714;PMS7003;54505;44.022;20.458;2022-10-13T09:31:34;67.25;52.50;33.50
67714;PMS7003;54505;44.022;20.458;2022-10-13T09:34:05;72.25;53.75;35.00
67714;PMS7003;54505;44.022;20.458;2022-10-13T09:36:36;64.75;49.75;31.75
67714;PMS7003;54505;44.022;20.458;2022-10-13T09:39:12;61.50;49.50;31.50
67714;PMS7003;54505;44.022;20.458;2022-10-13T09:41:39;62.25;50.00;31.75
67714;PMS7003;54505;44.022;20.458;2022-10-13T09:44:08;62.00;47.75;30.75
67714;PMS7003;54505;44.022;20.458;2022-10-13T09:46:37;59.75;47.25;30.75
67714;PMS7003;54505;44.022;20.458;2022-10-13T09:49:20;64.00;50.25;32.75
67714;PMS7003;54505;44.022;20.458;2022-10-13T09:51:49;62.00;49.25;31.50
67714;PMS7003;54505;44.022;20.458;2022-10-13T09:57:00;65.00;51.50;31.25
67714;PMS7003;54505;44.022;20.458;2022-10-13T09:59:37;56.50;44.50;30.75
67714;PMS7003;54505;44.022;20.458;2022-10-13T10:02:17;60.50;48.75;32.00
67714;PMS7003;54505;44.022;20.458;2022-10-13T10:04:44;66.00;52.25;32.25
67714;PMS7003;54505;44.022;20.458;2022-10-13T10:07:17;62.00;48.50;30.75
67714;PMS7003;54505;44.022;20.458;2022-10-13T10:09:52;64.00;51.00;32.50
67714;PMS7003;54505;44.022;20.458;2022-10-13T10:12:19;59.25;46.50;29.50
67714;PMS7003;54505;44.022;20.458;2022-10-13T10:14:46;64.50;52.00;34.00
67714;PMS7003;54505;44.022;20.458;2022-10-13T10:27:34;57.00;46.00;30.50
67714;PMS7003;54505;44.022;20.458;2022-10-13T10:30:07;53.00;43.50;29.25
67714;PMS7003;54505;44.022;20.458;2022-10-13T10:35:13;54.50;44.25;29.00
67714;PMS7003;54505;44.022;20.458;2022-10-13T10:40:36;59.00;47.00;29.00
67714;PMS7003;54505;44.022;20.458;2022-10-13T10:43:20;56.25;45.50;29.00
67714;PMS7003;54505;44.022;20.458;2022-10-13T10:45:47;57.00;45.00;29.75
67714;PMS7003;54505;44.022;20.458;2022-10-13T10:48:22;56.25;45.00;28.75
67714;PMS7003;54505;44.022;20.458;2022-10-13T10:50:48;59.75;47.25;30.50
67714;PMS7003;54505;44.022;20.458;2022-10-13T10:58:20;54.75;42.75;29.00
67714;PMS7003;54505;44.022;20.458;2022-10-13T11:01:02;55.00;44.75;29.00
67714;PMS7003;54505;44.022;20.458;2022-10-13T11:03:35;57.50;47.00;29.50
67714;PMS7003;54505;44.022;20.458;2022-10-13T11:06:20;57.75;45.25;29.00
67714;PMS7003;54505;44.022;20.458;2022-10-13T11:08:46;54.75;44.50;29.00
67714;PMS7003;54505;44.022;20.458;2022-10-13T11:16:29;58.25;46.00;29.25
67714;PMS7003;54505;44.022;20.458;2022-10-13T11:21:23;52.50;42.00;28.50
67714;PMS7003;54505;44.022;20.458;2022-10-13T11:23:49;58.25;45.00;29.75
67714;PMS7003;54505;44.022;20.458;2022-10-13T11:26:18;53.25;43.00;27.75
67714;PMS7003;54505;44.022;20.458;2022-10-13T11:28:45;53.00;41.75;26.50
67714;PMS7003;54505;44.022;20.458;2022-10-13T11:38:46;48.75;38.50;26.00
67714;PMS7003;54505;44.022;20.458;2022-10-13T11:41:20;48.00;40.00;25.00
67714;PMS7003;54505;44.022;20.458;2022-10-13T11:43:52;45.75;37.50;23.50
67714;PMS7003;54505;44.022;20.458;2022-10-13T11:46:22;49.25;40.75;26.00
67714;PMS7003;54505;44.022;20.458;2022-10-13T11:51:45;48.75;39.50;25.25
67714;PMS7003;54505;44.022;20.458;2022-10-13T11:55:04;43.00;35.00;23.50
67714;PMS7003;54505;44.022;20.458;2022-10-13T11:57:17;50.75;41.25;27.00
67714;PMS7003;54505;44.022;20.458;2022-10-13T11:59:45;48.75;40.25;25.00
67714;PMS7003;54505;44.022;20.458;2022-10-13T12:04:39;45.50;38.00;25.00
67714;PMS7003;54505;44.022;20.458;2022-10-13T12:07:06;48.00;38.50;25.50
67714;PMS7003;54505;44.022;20.458;2022-10-13T12:09:33;48.50;40.00;25.00
67714;PMS7003;54505;44.022;20.458;2022-10-13T12:12:02;51.25;40.50;26.00
67714;PMS7003;54505;44.022;20.458;2022-10-13T12:14:29;42.00;34.50;20.50
67714;PMS7003;54505;44.022;20.458;2022-10-13T12:16:57;43.25;34.00;21.25
67714;PMS7003;54505;44.022;20.458;2022-10-13T12:19:24;43.00;34.25;22.25
67714;PMS7003;54505;44.022;20.458;2022-10-13T12:21:53;43.00;34.75;23.00
67714;PMS7003;54505;44.022;20.458;2022-10-13T12:24:23;37.50;33.50;22.00
67714;PMS7003;54505;44.022;20.458;2022-10-13T12:26:49;40.25;35.25;23.50
67714;PMS7003;54505;44.022;20.458;2022-10-13T12:29:15;42.00;33.75;23.00
67714;PMS7003;54505;44.022;20.458;2022-10-13T12:31:42;41.50;34.75;22.25
67714;PMS7003;54505;44.022;20.458;2022-10-13T12:34:20;44.50;35.00;22.00
67714;PMS7003;54505;44.022;20.458;2022-10-13T12:36:54;45.50;34.50;22.00
67714;PMS7003;54505;44.022;20.458;2022-10-13T12:39:20;43.50;36.00;23.25
67714;PMS7003;54505;44.022;20.458;2022-10-13T12:41:46;41.00;33.25;22.00
67714;PMS7003;54505;44.022;20.458;2022-10-13T12:44:17;41.75;33.25;22.50
67714;PMS7003;54505;44.022;20.458;2022-10-13T12:46:45;38.75;33.25;22.00
67714;PMS7003;54505;44.022;20.458;2022-10-13T12:51:36;34.75;32.25;21.25
67714;PMS7003;54505;44.022;20.458;2022-10-13T12:54:23;32.75;30.00;21.75
67714;PMS7003;54505;44.022;20.458;2022-10-13T12:56:49;93.75;85.75;61.25
67714;PMS7003;54505;44.022;20.458;2022-10-13T12:59:16;48.50;40.50;27.00
67714;PMS7003;54505;44.022;20.458;2022-10-13T13:01:42;37.00;32.50;22.00
67714;PMS7003;54505;44.022;20.458;2022-10-13T13:07:04;29.00;26.25;19.00
67714;PMS7003;54505;44.022;20.458;2022-10-13T13:17:01;31.00;29.00;19.50
67714;PMS7003;54505;44.022;20.458;2022-10-13T13:19:29;31.75;29.75;19.00
67714;PMS7003;54505;44.022;20.458;2022-10-13T13:21:55;32.25;25.25;17.50
67714;PMS7003;54505;44.022;20.458;2022-10-13T13:24:20;35.25;30.50;20.00
67714;PMS7003;54505;44.022;20.458;2022-10-13T13:26:46;34.75;29.50;20.25
67714;PMS7003;54505;44.022;20.458;2022-10-13T13:29:12;37.00;31.50;21.75
67714;PMS7003;54505;44.022;20.458;2022-10-13T13:31:37;35.25;32.00;21.50
67714;PMS7003;54505;44.022;20.458;2022-10-13T13:34:03;35.75;31.75;21.25
67714;PMS7003;54505;44.022;20.458;2022-10-13T13:36:29;34.25;31.50;21.00
67714;PMS7003;54505;44.022;20.458;2022-10-13T13:38:55;37.25;31.00;20.25
67714;PMS7003;54505;44.022;20.458;2022-10-13T13:41:21;38.50;32.75;23.00
67714;PMS7003;54505;44.022;20.458;2022-10-13T13:43:47;34.75;30.75;21.00
67714;PMS7003;54505;44.022;20.458;2022-10-13T13:46:16;38.25;32.50;22.00
67714;PMS7003;54505;44.022;20.458;2022-10-13T13:48:42;43.50;34.50;23.00
67714;PMS7003;54505;44.022;20.458;2022-10-13T13:51:10;47.75;39.25;26.50
67714;PMS7003;54505;44.022;20.458;2022-10-13T13:53:36;41.50;34.50;25.25
67714;PMS7003;54505;44.022;20.458;2022-10-13T13:56:02;43.00;34.00;24.00
67714;PMS7003;54505;44.022;20.458;2022-10-13T13:58:27;32.25;28.50;21.75
67714;PMS7003;54505;44.022;20.458;2022-10-13T14:00:53;29.75;28.50;19.75
67714;PMS7003;54505;44.022;20.458;2022-10-13T14:03:19;30.75;28.00;19.25
67714;PMS7003;54505;44.022;20.458;2022-10-13T14:05:47;31.00;30.00;20.00
67714;PMS7003;54505;44.022;20.458;2022-10-13T14:08:12;38.75;32.75;21.50
67714;PMS7003;54505;44.022;20.458;2022-10-13T14:10:38;37.00;31.00;20.75
67714;PMS7003;54505;44.022;20.458;2022-10-13T14:13:04;27.50;25.00;18.00
67714;PMS7003;54505;44.022;20.458;2022-10-13T14:15:30;34.00;28.25;16.50
67714;PMS7003;54505;44.022;20.458;2022-10-13T14:17:56;31.00;29.75;19.00
67714;PMS7003;54505;44.022;20.458;2022-10-13T14:20:21;30.00;26.50;18.00
67714;PMS7003;54505;44.022;20.458;2022-10-13T14:22:47;29.75;27.75;18.25
67714;PMS7003;54505;44.022;20.458;2022-10-13T14:25:12;32.00;29.75;19.75
67714;PMS7003;54505;44.022;20.458;2022-10-13T14:27:38;27.75;25.75;16.50
67714;PMS7003;54505;44.022;20.458;2022-10-13T14:30:04;45.50;35.75;23.50
67714;PMS7003;54505;44.022;20.458;2022-10-13T14:32:30;30.75;29.25;19.75
67714;PMS7003;54505;44.022;20.458;2022-10-13T14:34:56;27.00;26.50;18.75
67714;PMS7003;54505;44.022;20.458;2022-10-13T14:37:21;28.75;24.75;17.25
67714;PMS7003;54505;44.022;20.458;2022-10-13T14:39:47;29.50;28.00;18.25
67714;PMS7003;54505;44.022;20.458;2022-10-13T14:42:13;33.25;30.25;20.00
67714;PMS7003;54505;44.022;20.458;2022-10-13T14:44:41;28.75;26.00;19.00
67714;PMS7003;54505;44.022;20.458;2022-10-13T14:47:06;36.00;29.50;19.00
67714;PMS7003;54505;44.022;20.458;2022-10-13T14:49:34;37.50;31.50;22.00
67714;PMS7003;54505;44.022;20.458;2022-10-13T14:52:00;30.75;28.75;19.00
67714;PMS7003;54505;44.022;20.458;2022-10-13T14:54:26;30.25;29.00;18.25
67714;PMS7003;54505;44.022;20.458;2022-10-13T14:56:52;33.00;28.75;17.25
67714;PMS7003;54505;44.022;20.458;2022-10-13T14:59:17;31.75;29.50;20.00
67714;PMS7003;54505;44.022;20.458;2022-10-13T15:01:43;34.25;32.00;20.75
67714;PMS7003;54505;44.022;20.458;2022-10-13T15:04:09;36.50;31.50;20.75
67714;PMS7003;54505;44.022;20.458;2022-10-13T15:06:35;37.00;28.50;17.75